Poseidon — WDJ2022 — position and weather

sailwx.info

Track history (hours):
 
Tides and Currents Weather Stations Pressure Air Temp Water Temp Dewpoint Dewpoint Depression Visibility Wind Speed Wind Dir Waves Ship Positions

Poseidon

Owner: G & H Towing Company, Galveston, TX. More information available from US FCC via Universal Licensing System and Coast Guard Vessel Documentation Center.

Last reported at 2017-Oct-19 09:46 UTC. Time now 2017-Oct-20 04:56 UTC.
Position N 29°44' W 095°08'.

Length 24 m; draft 5.4 m.

Type: Tug. MMSI: 367754480.

Date/timePositionNaut miles runAvg speedWind from/ knotsBaromVisibWave heightAir tempDewpointWater temp
2017-Oct-19 09:46N 29°44' W 095°08'0 0.1
2017-Oct-19 06:52N 29°44' W 095°08'1 1.6
2017-Oct-19 06:20N 29°44' W 095°09'7 0.9
2017-Oct-18 22:51N 29°44' W 095°01'1 0.1
2017-Oct-18 13:36N 29°44' W 095°03'1 0.7
2017-Oct-18 12:21N 29°45' W 095°04'2 5.0
2017-Oct-18 11:53N 29°45' W 095°06'0 0.0
2017-Oct-18 09:11N 29°45' W 095°06'0 0.0
2017-Oct-18 08:59N 29°45' W 095°06'0 0.0
2017-Oct-18 08:23N 29°45' W 095°06'0 0.1
2017-Oct-18 05:38N 29°45' W 095°07'1 0.3
2017-Oct-18 01:54N 29°45' W 095°06'6 0.7
2017-Oct-17 16:58N 29°44' W 095°12'1 0.1
2017-Oct-17 06:53N 29°44' W 095°13'1 1.3
2017-Oct-17 06:29N 29°43' W 095°13'2 3.0
2017-Oct-17 05:50N 29°45' W 095°11'1 1.9
2017-Oct-17 05:29N 29°44' W 095°12'2 4.8
2017-Oct-17 04:57N 29°44' W 095°09'1 0.7
2017-Oct-17 03:37N 29°44' W 095°08'1 5.6
2017-Oct-17 03:30N 29°44' W 095°09'2 0.7
2017-Oct-17 00:09N 29°45' W 095°11'1 4.8
2017-Oct-17 00:00N 29°44' W 095°12'0 0.0
2017-Oct-16 23:30N 29°44' W 095°12'0 0.0
2017-Oct-16 18:40N 29°44' W 095°12'10 2.2
2017-Oct-16 14:11N 29°42' W 095°01'2 2.5
2017-Oct-16 13:28N 29°44' W 095°02'0 0.0
2017-Oct-16 07:27N 29°44' W 095°02'1 0.1
2017-Oct-15 19:38N 29°43' W 095°01'2 7.0
2017-Oct-15 19:22N 29°42' W 094°59'1 0.2
2017-Oct-15 16:47N 29°41' W 094°59'3 8.6
2017-Oct-15 16:24N 29°44' W 095°02'4 0.9
2017-Oct-15 11:26N 29°45' W 095°07'0 0.0
2017-Oct-14 12:36N 29°45' W 095°07'5 0.7
2017-Oct-14 06:02N 29°44' W 095°01'1 4.7
2017-Oct-14 05:51N 29°43' W 095°01'1 1.7
2017-Oct-14 05:30N 29°42' W 095°01'4 7.2
2017-Oct-14 05:00N 29°45' W 095°04'3 0.2
2017-Oct-13 13:22N 29°44' W 095°08'1 0.1
2017-Oct-13 06:25N 29°44' W 095°07'0 0.0
2017-Oct-13 05:46N 29°44' W 095°07'0 0.0
2017-Oct-13 05:28N 29°44' W 095°07'5 0.3
2017-Oct-12 13:18N 29°42' W 095°01'6 9.4
2017-Oct-12 12:38N 29°37' W 094°58'1 9.8
2017-Oct-12 12:30N 29°37' W 094°59'1 2.2
2017-Oct-12 12:00N 29°37' W 095°00'0 0.1
2017-Oct-12 11:31N 29°37' W 095°00'0 0.5
2017-Oct-12 10:57N 29°37' W 095°01'0 0.0
2017-Oct-12 10:27N 29°37' W 095°01'0 0.0
2017-Oct-12 10:00N 29°37' W 095°01'0 0.0
2017-Oct-12 09:30N 29°37' W 095°01'0 0.0
2017-Oct-12 08:56N 29°37' W 095°01'0 0.0
2017-Oct-12 08:29N 29°37' W 095°01'0 0.1
2017-Oct-12 08:00N 29°37' W 095°01'1 1.1
2017-Oct-12 07:31N 29°37' W 095°01'3 6.1
2017-Oct-12 07:00N 29°37' W 094°58'4 8.9
2017-Oct-12 06:31N 29°41' W 094°59'0 0.2
2017-Oct-12 05:58N 29°41' W 094°59'0 0.0
2017-Oct-12 05:28N 29°41' W 094°59'0 0.0
2017-Oct-12 04:58N 29°41' W 094°59'0 0.0
2017-Oct-12 04:28N 29°41' W 094°59'3 7.1
2017-Oct-12 03:59N 29°44' W 095°02'6 7.8
2017-Oct-12 03:11N 29°44' W 095°09'3 8.6
2017-Oct-12 02:53N 29°45' W 095°12'0 0.5
2017-Oct-12 02:09N 29°45' W 095°12'0 0.5
2017-Oct-12 01:58N 29°44' W 095°12'2 3.1
2017-Oct-12 01:22N 29°45' W 095°10'1 4.0
2017-Oct-12 01:00N 29°44' W 095°09'7 1.1
2017-Oct-11 18:47N 29°44' W 095°17'5 0.1
2017-Oct-10 05:02N 29°45' W 095°11'0 0.0
2017-Oct-10 05:00N 29°45' W 095°11'0 0.0
2017-Oct-10 04:29N 29°45' W 095°11'10 1.3
2017-Oct-09 20:55N 29°42' W 095°01'1 0.2
2017-Oct-09 13:30N 29°41' W 094°59'1 1.9
2017-Oct-09 13:00N 29°41' W 095°00'0 0.0
2017-Oct-09 11:36N 29°41' W 095°00'1 9.0
2017-Oct-09 11:29N 29°41' W 094°59'4 9.0
2017-Oct-09 11:00N 29°44' W 095°03'  
Track history (hours):
 
Tides and Currents Weather Stations Pressure Air Temp Water Temp Dewpoint Dewpoint Depression Visibility Wind Speed Wind Dir Waves Ship Positions

Poseidon

Owner: G & H Towing Company, Galveston, TX. More information available from US FCC via Universal Licensing System and Coast Guard Vessel Documentation Center.

Last reported at 2017-Oct-19 09:46 UTC. Time now 2017-Oct-20 04:56 UTC.
Position N 29°44' W 095°08'.

Length 24 m; draft 5.4 m.

Type: Tug. MMSI: 367754480.

Date/timePositionNaut miles runAvg speedWind from/ knotsBaromVisibWave heightAir tempDewpointWater temp
2017-Oct-19 09:46N 29°44' W 095°08'0 0.1
2017-Oct-19 06:52N 29°44' W 095°08'1 1.6
2017-Oct-19 06:20N 29°44' W 095°09'7 0.9
2017-Oct-18 22:51N 29°44' W 095°01'1 0.1
2017-Oct-18 13:36N 29°44' W 095°03'1 0.7
2017-Oct-18 12:21N 29°45' W 095°04'2 5.0
2017-Oct-18 11:53N 29°45' W 095°06'0 0.0
2017-Oct-18 09:11N 29°45' W 095°06'0 0.0
2017-Oct-18 08:59N 29°45' W 095°06'0 0.0
2017-Oct-18 08:23N 29°45' W 095°06'0 0.1
2017-Oct-18 05:38N 29°45' W 095°07'1 0.3
2017-Oct-18 01:54N 29°45' W 095°06'6 0.7
2017-Oct-17 16:58N 29°44' W 095°12'1 0.1
2017-Oct-17 06:53N 29°44' W 095°13'1 1.3
2017-Oct-17 06:29N 29°43' W 095°13'2 3.0
2017-Oct-17 05:50N 29°45' W 095°11'1 1.9
2017-Oct-17 05:29N 29°44' W 095°12'2 4.8
2017-Oct-17 04:57N 29°44' W 095°09'1 0.7
2017-Oct-17 03:37N 29°44' W 095°08'1 5.6
2017-Oct-17 03:30N 29°44' W 095°09'2 0.7
2017-Oct-17 00:09N 29°45' W 095°11'1 4.8
2017-Oct-17 00:00N 29°44' W 095°12'0 0.0
2017-Oct-16 23:30N 29°44' W 095°12'0 0.0
2017-Oct-16 18:40N 29°44' W 095°12'10 2.2
2017-Oct-16 14:11N 29°42' W 095°01'2 2.5
2017-Oct-16 13:28N 29°44' W 095°02'0 0.0
2017-Oct-16 07:27N 29°44' W 095°02'1 0.1
2017-Oct-15 19:38N 29°43' W 095°01'2 7.0
2017-Oct-15 19:22N 29°42' W 094°59'1 0.2
2017-Oct-15 16:47N 29°41' W 094°59'3 8.6
2017-Oct-15 16:24N 29°44' W 095°02'4 0.9
2017-Oct-15 11:26N 29°45' W 095°07'0 0.0
2017-Oct-14 12:36N 29°45' W 095°07'5 0.7
2017-Oct-14 06:02N 29°44' W 095°01'1 4.7
2017-Oct-14 05:51N 29°43' W 095°01'1 1.7
2017-Oct-14 05:30N 29°42' W 095°01'4 7.2
2017-Oct-14 05:00N 29°45' W 095°04'3 0.2
2017-Oct-13 13:22N 29°44' W 095°08'1 0.1
2017-Oct-13 06:25N 29°44' W 095°07'0 0.0
2017-Oct-13 05:46N 29°44' W 095°07'0 0.0
2017-Oct-13 05:28N 29°44' W 095°07'5 0.3
2017-Oct-12 13:18N 29°42' W 095°01'6 9.4
2017-Oct-12 12:38N 29°37' W 094°58'1 9.8
2017-Oct-12 12:30N 29°37' W 094°59'1 2.2
2017-Oct-12 12:00N 29°37' W 095°00'0 0.1
2017-Oct-12 11:31N 29°37' W 095°00'0 0.5
2017-Oct-12 10:57N 29°37' W 095°01'0 0.0
2017-Oct-12 10:27N 29°37' W 095°01'0 0.0
2017-Oct-12 10:00N 29°37' W 095°01'0 0.0
2017-Oct-12 09:30N 29°37' W 095°01'0 0.0
2017-Oct-12 08:56N 29°37' W 095°01'0 0.0
2017-Oct-12 08:29N 29°37' W 095°01'0 0.1
2017-Oct-12 08:00N 29°37' W 095°01'1 1.1
2017-Oct-12 07:31N 29°37' W 095°01'3 6.1
2017-Oct-12 07:00N 29°37' W 094°58'4 8.9
2017-Oct-12 06:31N 29°41' W 094°59'0 0.2
2017-Oct-12 05:58N 29°41' W 094°59'0 0.0
2017-Oct-12 05:28N 29°41' W 094°59'0 0.0
2017-Oct-12 04:58N 29°41' W 094°59'0 0.0
2017-Oct-12 04:28N 29°41' W 094°59'3 7.1
2017-Oct-12 03:59N 29°44' W 095°02'6 7.8
2017-Oct-12 03:11N 29°44' W 095°09'3 8.6
2017-Oct-12 02:53N 29°45' W 095°12'0 0.5
2017-Oct-12 02:09N 29°45' W 095°12'0 0.5
2017-Oct-12 01:58N 29°44' W 095°12'2 3.1
2017-Oct-12 01:22N 29°45' W 095°10'1 4.0
2017-Oct-12 01:00N 29°44' W 095°09'7 1.1
2017-Oct-11 18:47N 29°44' W 095°17'5 0.1
2017-Oct-10 05:02N 29°45' W 095°11'0 0.0
2017-Oct-10 05:00N 29°45' W 095°11'0 0.0
2017-Oct-10 04:29N 29°45' W 095°11'10 1.3
2017-Oct-09 20:55N 29°42' W 095°01'1 0.2
2017-Oct-09 13:30N 29°41' W 094°59'1 1.9
2017-Oct-09 13:00N 29°41' W 095°00'0 0.0
2017-Oct-09 11:36N 29°41' W 095°00'1 9.0
2017-Oct-09 11:29N 29°41' W 094°59'4 9.0
2017-Oct-09 11:00N 29°44' W 095°03'  

Dump ship's entire track history